AREA preflight bulletin
Updated "live" 25 Sep 2017, 18:34

back to the map




METAR og TAF


NARSARSUAQ
  AKTUEL BGBW 251750Z 29003KT 9999 FEW050 05/M06 Q0994 RMK 1CU =
  TAF 9 timer BGBW 251743Z 2518/2523 VRB06KT 9999 FEW100=

QAQORTOQ
  AKTUEL BGJH 251820Z AUTO 27006KT 240V320 //// ///////// 04/M03 Q0994=

PAAMIUT
  AKTUEL BGPT 251820Z AUTO 24004KT 180V340 9999NDV NCD 02/M05 Q0994=

NARSAQ
  AKTUEL BGNS 251820Z AUTO /////KT //// ///////// 04/M04 Q0994=

NANORTALIK
  AKTUEL BGNN 251820Z AUTO 05004KT 020V080 //// ///////// 04/M03 Q0993=

NUUK
  AKTUEL BGGH 251750Z 05009KT 9999 BKN180 03/M04 Q0994=
  TAF 9 timer BGGH 251743Z 2518/2602 05012KT 9999 FEW020 BKN140 TEMPO 2518/2602 BKN080=

KANGERLUSSUAQ
  AKTUEL BGSF 251820Z AUTO 03003KT 9999NDV BKN070/// BKN085/// 01/M07 Q1002=
  TAF 24 timer BGSF 251703Z 2518/2624 07010KT 9999 BKN120 TEMPO 2518/2609 BKN060 TEMPO 2609/2624 10015G25KT BKN080=


SIGMETS:

SONDRESTROM FIR
  SIGMET BGGL SIGMET 4 VALID 251520/251920 BGSF- BGGL SONDRESTROM FIR SEV TURB FCST AT 1520Z WI N6558 W04123 - N6717 W03556 - N6601 W03323 - N6427 W03829 - N6253 W04017 - N6332 W04402 - N6558 W04123 SFC/FL090 STNR INTSF=

NOTAM/SNOWTAM for operationel use has to be confirmed with the
nearest AIS Briefing Office prior to a flight.

ICAO
BGBW (NARSARSUAQ)

FIR
BGGL

Notam_id:
BGA0334/17

valid from:
1707261401

E) REF AD-2 RNAV (GNSS) Z RWY 06-1 DUE TO TERRAIN WARNING REPORTS ON FINAL, LNAV OCA(H) INCREASED. CAT A INCREASED TO 1660(1548) FT FOR ALL CLIMB GRADIENTS, CAT B INCREASED TO 1700(1588) FT FOR ALL CLIMB GRADIENTS, CAT C INCREASEDTO 1800(1688) FT FOR ALL CLIMB GRADIENTS.

valid to:
1710311900




ICAO
BGBW (NARSARSUAQ)

FIR
BGGL

Notam_id:
BGA0377/17

valid from:
1710120000

E) TRIGGER NOTAM - PERM AIP AIRAC AMDT 10/17 WEF 12 OCT 2017. NEW PARAGRAPH 5 (CONCERNING LAUNCH OF BALLOON) UNDER CHAPTER 23 (ADDITIONAL INFORMATION).

valid to:
1710252359




ICAO
BGBW (NARSARSUAQ)

FIR
BGGL

Notam_id:
BGA0335/17

valid from:
1707261539

E) REF AD-2 RNAV (GNSS) Y RWY 06-1 DUE TO TERRAIN WARNING REPORTS ON FINAL, LNAV OCA(H) INCREASED. CAT A INCREASED TO 1660(1548) FT FOR ALL CLIMB GRADIENTS, CAT B INCREASED TO 1700(1588) FT FOR ALL CLIMB GRADIENTS, CAT C INCREASEDTO 1800(1688) FT FOR ALL CLIMB GRADIENTS.

valid to:
1710311900




ICAO
BGJH (QAQORTOQ)

FIR
BGGL

Notam_id:
BGC0045/17

valid from:
1711090000

E) TRIGGER NOTAM - PERM AIP AIRAC AMDT 11/17 WEF 09 NOV 2017. NEW REMARKS CONCERNING OPERATION LIMITATIONS FOR HELICOPTERS.

valid to:
1711222359




ICAO
BGJH (QAQORTOQ)

FIR
BGGL

Notam_id:
BGC0044/16

valid from:
1607291547

E) MAXIMUM HELICOPTERLENGTH TO OPERATE AT QAQORTOQ, MAINROTOR INCLUDED, NOT TO EXCEED 20 METERS. HELIPORT ONLY CERTIFIED TO OPERATE PAYING PASSENGERTRANSPORT FOR HELICOPTERS WITH MTOW OF 10500 LBS AT TAKEOFF AND WHICH IS CERTIFIED TO CARRY UP TO MAXIMUM 19 PASSENGER. LANDING MUST ONLY TAKE PLACE WHEN WIND VELOCITY DOES NOT EXCEED 50KT(GUST INCLUDED).

valid to:
PERM




ICAO
BGPT (PAAMIUT)

FIR
BGGL

Notam_id:
BGB0675/17

valid from:
1708311546

E) WINDSENSOR THR35 OUT OF SERVICE

valid to:
1709261400EST




ICAO
BGNS (NARSAQ)

FIR
BGGL

Notam_id:
BGC0046/17

valid from:
1709221521

E) WDI AND STRENGTH INDICATOR OUT OF SERVICE.

valid to:
1709281300




ICAO
BGGL (SONDRESTROM FIR)

FIR
BGGL

Notam_id:
BGA0379/17

valid from:
1710120000

E) TRIGGER NOTAM - PERM AIP AIRAC AMDT 10/17 WEF 12 OCT 2017. REF GEN 1.7: ANNEX 14 (AERODROMES AND HELIPORTS) VOLUME I AND II UPDATED.

valid to:
1710252359




ICAO
BGGL (SONDRESTROM FIR)

FIR
BGGL

Notam_id:
BGB0616/17

valid from:
1710050000

E) TEMPORARY DANGER AREA POLARSTERN EAST IS ACTIVE. REF AIP SUP 03/17 PUBLISHED 11 AUG 2017. LATERAL LIMITS: 803500N0110000W 794500N0032000W 762700N0071800W 775600N0152200W TRAFFIC IS ADVISED NOT TO OPERATE IN THE AREA WHILE DRONE ACTIVITIES ARE PERFORMED IN THE AREA. INFORMATION ABOUT DRONE OPERATIONS IN THE AREA CAN BE OBTAINED FROM SONDRESTROM FIC BY PHONE +299 363304 OR ON HF 5526 KHZ. BACKUP HF 8945 KHZ. F) SFC G) 4000FT AMSL

valid to:
1710102359




ICAO
BGGL (SONDRESTROM FIR)

FIR
BGGL

Notam_id:
BGB0713/17

valid from:
1709151102

E) TUNULLIARFIK MAST 922FT OBST LIGHT ON TRANSMISSIONLINE OUT OF SERVICE. PSN 605254N0455957W.

valid to:
1711151600


Replacing:
BGB0536/17

ICAO
BGGL (SONDRESTROM FIR)

FIR
BGGL

Notam_id:
BGA0387/17

valid from:
1709010445

E) CHECKLIST YEAR=2015 0175 YEAR=2016 NIL YEAR=2017 0254 0255 0269 0334 0335 0340 0361 0363 0377 0379 0384 0386 LATEST PUBLICATIONS AIP AIRAC AMDT IFR 010/2017 EFFECTIVE DATE 12 OCT 17 AIP AMDT IFR 008/2017 EFFECTIVE DATE 31 AUG 17 AIP SUP IFR 003/2017 EFFECTIVE DATE 11 AUG 17 AIC IFR A002/2017 EFFECTIVE DATE 31 AUG 17

valid to:
1710010445EST


Replacing:
BGA0339/17

ICAO
BGGL (SONDRESTROM FIR)

FIR
BGGL

Notam_id:
BGB0676/17

valid from:
1709010445

E) CHECKLIST YEAR=2016 0593 YEAR=2017 0535 0536 0570 0571 0585 0602 0614 0615 0616 0626 0631 0636 0649 0650 0654 0655 0665 0666 0670 0671 0672 0673 0675 LATEST PUBLICATIONS AIP AIRAC AMDT IFR 010/2017 EFFECTIVE DATE 12 OCT 17 AIP AMDT IFR 008/2017 EFFECTIVE DATE 31 AUG 17 AIP SUP IFR 003/2017 EFFECTIVE DATE 11 AUG 17 AIC IFR A002/2017 EFFECTIVE DATE 31 AUG 17

valid to:
1710010445EST


Replacing:
BGB0584/17

ICAO
BGGL (SONDRESTROM FIR)

FIR
BGGL

Notam_id:
BGC0038/17

valid from:
1709010446

E) CHECKLIST YEAR=2016 0044 YEAR=2017 0030 0031 0035 0037 LATEST PUBLICATIONS AIP AIRAC AMDT IFR 010/2017 EFFECTIVE DATE 12 OCT 17 AIP AMDT IFR 008/2017 EFFECTIVE DATE 31 AUG 17 AIP SUP IFR 003/2017 EFFECTIVE DATE 11 AUG 17 AIC IFR A002/2017 EFFECTIVE DATE 31 AUG 17

valid to:
1710010446EST


Replacing:
BGC0033/17

ICAO
BGGL (SONDRESTROM FIR)

FIR
BGGL

Notam_id:
BGA0410/17

valid from:
1709281000

E) FIC SONDRESTROM INFORMATION FREQ 121.300 MHZ PSN 640955N0514444 (NUUK) OUT OF SERVICE DUE TO MAINTENANCE.

valid to:
1709291800




ICAO
BGGL (SONDRESTROM FIR)

FIR
BGGL

Notam_id:
BGB0614/17

valid from:
1709180000

E) TEMPORARY RESTRICTED AREA POLARSTERN WEST IS ACTIVE. REF AIP SUP 03/17 PUBLISHED 11 AUG 2017. LATERAL LIMITS: 804100N0155500W 803500N0110000W 775600N0152200W 775000N0172500W 791200N0212000W NO TRAFFIC PERMITTED IN THE RESTRICTED AREA WHILE DRONE ACTIVITIES ARE PERFORMED WITHIN THE RESTRICTED AREA. INFORMATION ABOUT ACTUAL DRONE ACTIVITIES CAN BE OBTAINED FROM SONDRESTROM FIC BY PHONE +299 363304 OR ON HF 5526 KHZ. BACKUP HF 8945 KHZ. F) SFC G) 4000FT AMSL

valid to:
1710082359




ICAO
BGGL (SONDRESTROM FIR)

FIR
BGGL

Notam_id:
BGA0361/17

valid from:
1709160000

E) TRIGGER NOTAM - AIP SUP 03/17 PUBLISHED 11 AUG 2017 - WEF 16 SEP 2017. RESTRICTED AREA POLARSTERN WEST AND DANGER AREA POLARSTERN EAST. F) GND G) 4000FT AMSL

valid to:
1709292359




ICAO
BGGL (SONDRESTROM FIR)

FIR
BGGL

Notam_id:
BGA0340/17

valid from:
1709140000

E) TRIGGER NOTAM - PERM AIP AIRAC AMDT 09/17 WEF 14 SEP 2017. REF GEN 3.5.2: CHANGES TO UUMMANNAQ/QAARSUT CONCERNING METEOROLOGICAL OBSERVATIONS AND REPORTS.

valid to:
1709272359




ICAO
BGGL (SONDRESTROM FIR)

FIR
BGGL

Notam_id:
BGB0712/17

valid from:
1709151100

E) KANGERLLUARSUK MAST 263FT OBST LIGHT ON TRANSMISSIONLINE OUT OF SERVICE. PSN 605130N0455730W.

valid to:
1711151600


Replacing:
BGB0535/17

ICAO
BGGH (NUUK)

FIR
BGGL

Notam_id:
BGB0654/17

valid from:
1710120000

E) TRIGGER NOTAM - PERM AIP AIRAC AMDT 10/17 WEF 12 OCT 2017. CHANGE TO TEL NUMBER.

valid to:
1710252359




ICAO
BGGH (NUUK)

FIR
BGGL

Notam_id:
BGB0602/17

valid from:
1708081726

E) AD TEL CHANGED TO: +299 382654. REF AIP GREENLAND AD2 - BGGH - 1, 2.5.

valid to:
PERM




ICAO
BGGH (NUUK)

FIR
BGGL

Notam_id:
BGB0677/17

valid from:
1709011240

E) BGGH AFIS FREQ 119.100 MHZ NO COVERAGE IN SECTOR BETWEEN 060 DEG MAG AND 210 DEG MAG BELOW FL100

valid to:
1710311500





Copyright Naviair   2003-2016